Hauptseite
METAR-TAF:

METAR-TAF

Flughäfen :

Fliegerhorst Schleswig

Schleswig-Jagel, Deutschland

Breite: 54-28N, Länge: 009-31E, Höhe: 22 m

Beobachtung

Neuester Wetterbericht von vor 1 Stunde und 14 Minuten, um 05:20 UTC
Wind 6 kt aus West/Nordwest
Temperatur 1°C
Luftfeuchtigkeit 100%
Luftdruck 1035 hPa
Sichtweite: 0200 m
Nebel

METAR: ETNS 010520Z 30006KT 0200 FG VV000 01/01 Q1035 RED RED

Zeit: 07:34 (06:34 UTC)

Prognose

Neuester Wetterbericht von vor 1 Stunde und 29 Minuten, um 05:05 UTC
Gültige Prognose vom 01 um 06 UTC bis 01 um 15 UTC
Wind 5 kt aus West/Nordwest
Sichtweite: 0500 m
Durchbrochene Bewölkung in der Höhe von 100 ft
Nebel
Übergehend zu
vom 01 um 10 UTC bis 01 um 12 UTC
Wind 5 kt aus West
Sichtweite: 3000 m
Durchbrochene Bewölkung in der Höhe von 400 ft
feuchter Dunst

TAF: ETNS 010505Z 0106/0115 30005KT 0500 FG BKN001 BECMG 0110/0112 27005KT 3000 BR BKN004 BY ETGL

Wetterbeobachtungen und Prognosen von mehr als 4000 Flughäfen (METAR und TAF Bericht).

Die verfügbaren Stationen werden durch gelbe und rote Markierungen auf der Karte dargestellt.

Führen Sie die Maus auf sie, um den Namen der Station zu sehen.

Darauf klicken, um die Beobachtung von Wetterbeobachtungen und Prognosen zu sehen.

Um die Karte zu ändern : klicken Sie auf den grünen Tasten mit einem schwarzen Kreuz Zum Vergrößern, auf den grünen Button mit einem Gedankenstrich zu verkleinern, oder auf die grünen Pfeile für benachbarte Karten.


METAR-TAF: